CheckWX is a tool to help pilots better visualize weather data.  It is not intended as a substitute for an official pre-flight weather briefing.

05:16:07 UTC

KMWM METAR
Windom Municipal Airport
Windom, Minnesota, USA
Current

20 mins ago

KMWM 240456Z AUTO 31023G29KT M08/M09 A2964 RMK AO2 PWINO
Observed
Feb-24 @ 04:56 UTC
Wind
  • 310° at 23 KTS
  • Gusting to 29 KTS
Visibility
Temperature
-8°C / 18°F
Dewpoint
-9°C / 16°F
Humidity
93%
Altimeter
29.64" Hg
Pressure
1003.72 hPa
Previous

41 mins ago

KMWM 240435Z AUTO 31024G27KT M08/M08 A2964 RMK AO2 PWINO
Observed
Feb-24 @ 04:35 UTC
Wind
  • 310° at 24 KTS
  • Gusting to 27 KTS
Visibility
Temperature
-8°C / 18°F
Dewpoint
-8°C / 18°F
Humidity
100%
Altimeter
29.64" Hg
Pressure
1003.72 hPa
Previous

60 mins ago

KMWM 240416Z AUTO 31023G28KT M07/M08 A2964 RMK AO2 PWINO
Observed
Feb-24 @ 04:16 UTC
Wind
  • 310° at 23 KTS
  • Gusting to 28 KTS
Visibility
Temperature
-7°C / 19°F
Dewpoint
-8°C / 18°F
Humidity
93%
Altimeter
29.64" Hg
Pressure
1003.72 hPa